sensor_id;sensor_type;location;lat;lon;timestamp;pressure;altitude;pressure_sealevel;temperature;humidity
52291;BME280;39663;45.432;28.050;2023-02-11T00:00:05;103252.56;;;9.36;46.23
52291;BME280;39663;45.432;28.050;2023-02-11T00:00:38;103253.86;;;9.17;45.75
52291;BME280;39663;45.432;28.050;2023-02-11T00:01:15;103252.95;;;9.32;45.85
52291;BME280;39663;45.432;28.050;2023-02-11T00:01:49;103251.50;;;9.33;45.68
52291;BME280;39663;45.432;28.050;2023-02-11T00:02:21;103251.47;;;9.32;45.72
52291;BME280;39663;45.432;28.050;2023-02-11T00:02:52;103249.99;;;9.15;45.71
52291;BME280;39663;45.432;28.050;2023-02-11T00:03:24;103247.70;;;9.34;45.62
52291;BME280;39663;45.432;28.050;2023-02-11T00:03:56;103248.75;;;9.33;45.68
52291;BME280;39663;45.432;28.050;2023-02-11T00:04:28;103250.69;;;9.49;45.56
52291;BME280;39663;45.432;28.050;2023-02-11T00:05:00;103249.32;;;9.24;45.84
52291;BME280;39663;45.432;28.050;2023-02-11T00:05:32;103249.52;;;9.26;46.12
52291;BME280;39663;45.432;28.050;2023-02-11T00:06:05;103247.98;;;9.23;46.05
52291;BME280;39663;45.432;28.050;2023-02-11T00:06:37;103247.92;;;9.24;46.26
52291;BME280;39663;45.432;28.050;2023-02-11T00:07:09;103248.38;;;9.23;46.24
52291;BME280;39663;45.432;28.050;2023-02-11T00:07:41;103243.34;;;9.17;46.05
52291;BME280;39663;45.432;28.050;2023-02-11T00:08:12;103242.27;;;9.18;46.29
52291;BME280;39663;45.432;28.050;2023-02-11T00:08:44;103240.22;;;9.14;45.95
52291;BME280;39663;45.432;28.050;2023-02-11T00:09:16;103238.44;;;9.17;45.77
52291;BME280;39663;45.432;28.050;2023-02-11T00:09:47;103235.29;;;9.20;45.84
52291;BME280;39663;45.432;28.050;2023-02-11T00:10:19;103235.50;;;9.21;45.68
52291;BME280;39663;45.432;28.050;2023-02-11T00:10:52;103234.44;;;8.96;45.94
52291;BME280;39663;45.432;28.050;2023-02-11T00:11:24;103234.53;;;9.21;45.98
52291;BME280;39663;45.432;28.050;2023-02-11T00:11:56;103234.60;;;8.99;45.98
52291;BME280;39663;45.432;28.050;2023-02-11T00:12:28;103234.91;;;9.19;46.03
52291;BME280;39663;45.432;28.050;2023-02-11T00:12:59;103234.61;;;9.14;46.07
52291;BME280;39663;45.432;28.050;2023-02-11T00:13:31;103232.35;;;9.11;46.28
52291;BME280;39663;45.432;28.050;2023-02-11T00:14:04;103235.22;;;8.93;46.11
52291;BME280;39663;45.432;28.050;2023-02-11T00:14:36;103232.91;;;8.92;45.81
52291;BME280;39663;45.432;28.050;2023-02-11T00:15:09;103232.96;;;9.09;45.90
52291;BME280;39663;45.432;28.050;2023-02-11T00:15:40;103231.14;;;9.07;45.92
52291;BME280;39663;45.432;28.050;2023-02-11T00:16:14;103231.08;;;9.09;45.89
52291;BME280;39663;45.432;28.050;2023-02-11T00:16:46;103230.83;;;9.05;45.90
52291;BME280;39663;45.432;28.050;2023-02-11T00:17:17;103229.07;;;9.07;46.11
52291;BME280;39663;45.432;28.050;2023-02-11T00:17:49;103230.55;;;9.02;46.18
52291;BME280;39663;45.432;28.050;2023-02-11T00:18:21;103229.23;;;9.05;46.29
52291;BME280;39663;45.432;28.050;2023-02-11T00:18:53;103228.60;;;9.05;46.31
52291;BME280;39663;45.432;28.050;2023-02-11T00:19:24;103229.35;;;9.07;46.23
52291;BME280;39663;45.432;28.050;2023-02-11T00:19:56;103229.74;;;9.07;45.95
52291;BME280;39663;45.432;28.050;2023-02-11T00:20:27;103228.75;;;8.87;46.14
52291;BME280;39663;45.432;28.050;2023-02-11T00:20:59;103228.99;;;9.05;46.34
52291;BME280;39663;45.432;28.050;2023-02-11T00:21:31;103230.37;;;9.23;46.11
52291;BME280;39663;45.432;28.050;2023-02-11T00:22:02;103226.24;;;9.00;46.06
52291;BME280;39663;45.432;28.050;2023-02-11T00:22:34;103225.64;;;9.12;46.15
52291;BME280;39663;45.432;28.050;2023-02-11T00:23:05;103227.80;;;8.99;45.78
52291;BME280;39663;45.432;28.050;2023-02-11T00:23:37;103226.21;;;8.99;46.15
52291;BME280;39663;45.432;28.050;2023-02-11T00:24:09;103227.82;;;8.98;46.14
52291;BME280;39663;45.432;28.050;2023-02-11T00:24:40;103228.41;;;9.00;46.07
52291;BME280;39663;45.432;28.050;2023-02-11T00:25:12;103228.31;;;9.18;45.92
52291;BME280;39663;45.432;28.050;2023-02-11T00:25:45;103232.24;;;8.74;46.11
52291;BME280;39663;45.432;28.050;2023-02-11T00:26:18;103231.70;;;9.30;46.34
52291;BME280;39663;45.432;28.050;2023-02-11T00:26:50;103234.52;;;8.74;46.24
52291;BME280;39663;45.432;28.050;2023-02-11T00:27:21;103235.37;;;8.77;46.23
52291;BME280;39663;45.432;28.050;2023-02-11T00:27:53;103234.04;;;8.91;46.07
52291;BME280;39663;45.432;28.050;2023-02-11T00:28:24;103234.70;;;8.70;46.26
52291;BME280;39663;45.432;28.050;2023-02-11T00:28:56;103235.76;;;8.91;46.03
52291;BME280;39663;45.432;28.050;2023-02-11T00:29:28;103236.64;;;8.89;46.28
52291;BME280;39663;45.432;28.050;2023-02-11T00:29:59;103235.10;;;8.82;46.34
52291;BME280;39663;45.432;28.050;2023-02-11T00:30:31;103233.65;;;9.07;46.32
52291;BME280;39663;45.432;28.050;2023-02-11T00:31:02;103234.84;;;8.85;46.37
52291;BME280;39663;45.432;28.050;2023-02-11T00:31:34;103233.25;;;8.85;46.51
52291;BME280;39663;45.432;28.050;2023-02-11T00:32:06;103234.27;;;8.86;46.27
52291;BME280;39663;45.432;28.050;2023-02-11T00:32:37;103234.27;;;8.85;46.28
52291;BME280;39663;45.432;28.050;2023-02-11T00:33:09;103233.54;;;8.82;46.51
52291;BME280;39663;45.432;28.050;2023-02-11T00:33:40;103232.16;;;9.05;46.35
52291;BME280;39663;45.432;28.050;2023-02-11T00:34:12;103232.51;;;8.79;46.28
52291;BME280;39663;45.432;28.050;2023-02-11T00:34:44;103233.12;;;8.83;46.21
52291;BME280;39663;45.432;28.050;2023-02-11T00:35:16;103233.63;;;8.64;46.12
52291;BME280;39663;45.432;28.050;2023-02-11T00:35:48;103233.91;;;8.83;46.31
52291;BME280;39663;45.432;28.050;2023-02-11T00:36:21;103234.40;;;8.81;46.40
52291;BME280;39663;45.432;28.050;2023-02-11T00:36:53;103232.26;;;8.84;46.47
52291;BME280;39663;45.432;28.050;2023-02-11T00:37:25;103230.69;;;9.20;46.31
52291;BME280;39663;45.432;28.050;2023-02-11T00:37:56;103231.05;;;8.78;46.38
52291;BME280;39663;45.432;28.050;2023-02-11T00:38:28;103231.41;;;8.88;46.30
52291;BME280;39663;45.432;28.050;2023-02-11T00:39:00;103229.12;;;8.86;46.24
52291;BME280;39663;45.432;28.050;2023-02-11T00:39:31;103230.12;;;8.79;46.31
52291;BME280;39663;45.432;28.050;2023-02-11T00:40:03;103232.06;;;8.84;46.28
52291;BME280;39663;45.432;28.050;2023-02-11T00:40:35;103231.69;;;8.80;46.46
52291;BME280;39663;45.432;28.050;2023-02-11T00:41:07;103232.33;;;8.99;46.50
52291;BME280;39663;45.432;28.050;2023-02-11T00:41:38;103228.81;;;8.79;46.61
52291;BME280;39663;45.432;28.050;2023-02-11T00:42:13;103229.60;;;8.99;46.54
52291;BME280;39663;45.432;28.050;2023-02-11T00:42:45;103226.86;;;9.02;46.40
52291;BME280;39663;45.432;28.050;2023-02-11T00:43:16;103225.60;;;8.89;46.44
52291;BME280;39663;45.432;28.050;2023-02-11T00:43:48;103226.68;;;8.81;46.38
52291;BME280;39663;45.432;28.050;2023-02-11T00:44:20;103226.77;;;8.87;46.27
52291;BME280;39663;45.432;28.050;2023-02-11T00:44:52;103226.46;;;8.83;46.36
52291;BME280;39663;45.432;28.050;2023-02-11T00:45:23;103225.42;;;9.19;46.39
52291;BME280;39663;45.432;28.050;2023-02-11T00:45:55;103224.20;;;8.83;46.25
52291;BME280;39663;45.432;28.050;2023-02-11T00:46:27;103228.37;;;8.78;46.30
52291;BME280;39663;45.432;28.050;2023-02-11T00:46:58;103227.69;;;8.84;46.30
52291;BME280;39663;45.432;28.050;2023-02-11T00:47:30;103228.63;;;8.77;46.29
52291;BME280;39663;45.432;28.050;2023-02-11T00:48:01;103229.33;;;8.98;46.40
52291;BME280;39663;45.432;28.050;2023-02-11T00:48:33;103228.25;;;8.76;46.39
52291;BME280;39663;45.432;28.050;2023-02-11T00:49:05;103229.51;;;8.81;46.52
52291;BME280;39663;45.432;28.050;2023-02-11T00:49:37;103228.47;;;8.84;46.61
52291;BME280;39663;45.432;28.050;2023-02-11T00:50:08;103229.52;;;8.81;46.39
52291;BME280;39663;45.432;28.050;2023-02-11T00:50:40;103230.68;;;8.53;46.40
52291;BME280;39663;45.432;28.050;2023-02-11T00:51:12;103230.06;;;8.79;46.72
52291;BME280;39663;45.432;28.050;2023-02-11T00:51:43;103229.78;;;8.79;46.63
52291;BME280;39663;45.432;28.050;2023-02-11T00:52:15;103229.90;;;8.82;46.51
52291;BME280;39663;45.432;28.050;2023-02-11T00:52:47;103231.41;;;8.80;46.39
52291;BME280;39663;45.432;28.050;2023-02-11T00:53:18;103230.42;;;8.79;46.25
52291;BME280;39663;45.432;28.050;2023-02-11T00:53:50;103230.68;;;8.83;46.29
52291;BME280;39663;45.432;28.050;2023-02-11T00:54:22;103231.37;;;8.83;46.19
52291;BME280;39663;45.432;28.050;2023-02-11T00:54:53;103231.01;;;8.83;46.21
52291;BME280;39663;45.432;28.050;2023-02-11T00:55:25;103230.92;;;8.98;46.18
52291;BME280;39663;45.432;28.050;2023-02-11T00:55:57;103231.58;;;8.80;46.27
52291;BME280;39663;45.432;28.050;2023-02-11T00:56:28;103232.76;;;8.99;46.25
52291;BME280;39663;45.432;28.050;2023-02-11T00:57:00;103229.91;;;8.75;46.13
52291;BME280;39663;45.432;28.050;2023-02-11T00:57:31;103228.74;;;8.87;46.22
52291;BME280;39663;45.432;28.050;2023-02-11T00:58:03;103226.22;;;8.80;46.09
52291;BME280;39663;45.432;28.050;2023-02-11T00:58:35;103222.78;;;8.74;46.14
52291;BME280;39663;45.432;28.050;2023-02-11T01:06:08;103205.63;;;8.33;46.82
52291;BME280;39663;45.432;28.050;2023-02-11T01:06:39;103206.05;;;8.43;46.62
52291;BME280;39663;45.432;28.050;2023-02-11T01:07:11;103205.70;;;8.56;46.67
52291;BME280;39663;45.432;28.050;2023-02-11T01:07:42;103208.87;;;8.45;46.42
52291;BME280;39663;45.432;28.050;2023-02-11T01:08:14;103208.16;;;8.66;46.40
52291;BME280;39663;45.432;28.050;2023-02-11T01:08:46;103209.22;;;8.69;46.38
52291;BME280;39663;45.432;28.050;2023-02-11T01:09:17;103208.44;;;8.68;46.34
52291;BME280;39663;45.432;28.050;2023-02-11T01:09:48;103210.29;;;8.45;46.03
52291;BME280;39663;45.432;28.050;2023-02-11T01:10:20;103214.22;;;8.74;46.12
52291;BME280;39663;45.432;28.050;2023-02-11T01:10:56;103215.34;;;8.94;45.86
52291;BME280;39663;45.432;28.050;2023-02-11T01:11:28;103216.78;;;8.53;45.98
52291;BME280;39663;45.432;28.050;2023-02-11T01:11:59;103215.64;;;8.50;45.96
52291;BME280;39663;45.432;28.050;2023-02-11T01:12:31;103214.84;;;8.69;46.26
52291;BME280;39663;45.432;28.050;2023-02-11T01:13:04;103214.98;;;8.76;45.95
52291;BME280;39663;45.432;28.050;2023-02-11T01:13:36;103215.49;;;8.44;46.11
52291;BME280;39663;45.432;28.050;2023-02-11T01:14:07;103214.62;;;8.47;46.02
52291;BME280;39663;45.432;28.050;2023-02-11T01:14:39;103216.07;;;8.52;46.14
52291;BME280;39663;45.432;28.050;2023-02-11T01:15:12;103216.28;;;8.85;46.00
52291;BME280;39663;45.432;28.050;2023-02-11T01:15:45;103215.28;;;8.65;46.00
52291;BME280;39663;45.432;28.050;2023-02-11T01:16:18;103214.69;;;8.76;45.86
52291;BME280;39663;45.432;28.050;2023-02-11T01:16:49;103213.14;;;8.50;45.87
52291;BME280;39663;45.432;28.050;2023-02-11T01:17:21;103212.23;;;8.47;45.87
52291;BME280;39663;45.432;28.050;2023-02-11T01:17:52;103211.84;;;8.58;45.78
52291;BME280;39663;45.432;28.050;2023-02-11T01:18:25;103209.32;;;8.62;45.96
52291;BME280;39663;45.432;28.050;2023-02-11T01:18:57;103210.48;;;8.62;46.18
52291;BME280;39663;45.432;28.050;2023-02-11T01:19:28;103211.33;;;8.80;46.27
52291;BME280;39663;45.432;28.050;2023-02-11T01:20:02;103211.05;;;8.65;46.43
52291;BME280;39663;45.432;28.050;2023-02-11T01:20:33;103211.06;;;8.50;46.28
52291;BME280;39663;45.432;28.050;2023-02-11T01:21:05;103212.34;;;8.85;46.39
52291;BME280;39663;45.432;28.050;2023-02-11T01:21:36;103214.93;;;8.88;46.18
52291;BME280;39663;45.432;28.050;2023-02-11T01:22:08;103215.30;;;8.64;46.37
52291;BME280;39663;45.432;28.050;2023-02-11T01:22:40;103215.81;;;8.60;46.38
52291;BME280;39663;45.432;28.050;2023-02-11T01:23:11;103216.67;;;8.42;46.42
52291;BME280;39663;45.432;28.050;2023-02-11T01:23:43;103215.92;;;8.78;46.42
52291;BME280;39663;45.432;28.050;2023-02-11T01:24:14;103216.82;;;8.34;46.01
52291;BME280;39663;45.432;28.050;2023-02-11T01:24:46;103214.83;;;8.38;46.24
52291;BME280;39663;45.432;28.050;2023-02-11T01:25:18;103213.95;;;8.59;46.01
52291;BME280;39663;45.432;28.050;2023-02-11T01:25:50;103212.73;;;8.72;46.15
52291;BME280;39663;45.432;28.050;2023-02-11T01:26:22;103212.47;;;8.32;46.21
52291;BME280;39663;45.432;28.050;2023-02-11T01:26:54;103216.16;;;8.78;46.30
52291;BME280;39663;45.432;28.050;2023-02-11T01:27:25;103214.04;;;8.41;46.12
52291;BME280;39663;45.432;28.050;2023-02-11T01:27:57;103214.08;;;8.82;46.22
52291;BME280;39663;45.432;28.050;2023-02-11T01:28:29;103213.71;;;8.36;46.12
52291;BME280;39663;45.432;28.050;2023-02-11T01:29:01;103214.30;;;8.78;46.22
52291;BME280;39663;45.432;28.050;2023-02-11T01:29:32;103215.95;;;8.70;46.38
52291;BME280;39663;45.432;28.050;2023-02-11T01:30:06;103213.04;;;8.51;46.43
52291;BME280;39663;45.432;28.050;2023-02-11T01:30:38;103212.60;;;8.36;46.52
52291;BME280;39663;45.432;28.050;2023-02-11T01:31:10;103214.61;;;8.40;46.42
52291;BME280;39663;45.432;28.050;2023-02-11T01:31:41;103215.17;;;8.58;46.49
52291;BME280;39663;45.432;28.050;2023-02-11T01:32:13;103216.09;;;8.59;46.57
52291;BME280;39663;45.432;28.050;2023-02-11T01:32:44;103215.64;;;8.40;46.52
52291;BME280;39663;45.432;28.050;2023-02-11T01:33:16;103213.87;;;8.62;46.69
52291;BME280;39663;45.432;28.050;2023-02-11T01:33:48;103213.56;;;8.75;46.47
52291;BME280;39663;45.432;28.050;2023-02-11T01:34:19;103211.49;;;8.36;46.40
52291;BME280;39663;45.432;28.050;2023-02-11T01:34:51;103212.98;;;8.80;46.41
52291;BME280;39663;45.432;28.050;2023-02-11T01:35:23;103209.33;;;8.82;46.20
52291;BME280;39663;45.432;28.050;2023-02-11T01:35:54;103214.00;;;8.89;46.15
52291;BME280;39663;45.432;28.050;2023-02-11T01:36:26;103211.54;;;8.37;46.25
52291;BME280;39663;45.432;28.050;2023-02-11T01:36:58;103212.97;;;8.70;46.20
52291;BME280;39663;45.432;28.050;2023-02-11T01:37:32;103212.22;;;8.60;46.20
52291;BME280;39663;45.432;28.050;2023-02-11T01:38:03;103211.11;;;8.83;46.27
52291;BME280;39663;45.432;28.050;2023-02-11T01:38:35;103211.85;;;8.57;45.96
52291;BME280;39663;45.432;28.050;2023-02-11T01:39:07;103211.70;;;8.61;46.18
52291;BME280;39663;45.432;28.050;2023-02-11T01:39:39;103212.36;;;8.62;46.15
52291;BME280;39663;45.432;28.050;2023-02-11T01:40:14;103213.20;;;8.36;46.24
52291;BME280;39663;45.432;28.050;2023-02-11T01:40:47;103211.33;;;8.56;46.29
52291;BME280;39663;45.432;28.050;2023-02-11T01:41:19;103212.35;;;8.75;46.36
52291;BME280;39663;45.432;28.050;2023-02-11T01:41:51;103210.04;;;8.54;46.16
52291;BME280;39663;45.432;28.050;2023-02-11T01:42:23;103209.58;;;8.54;46.33
52291;BME280;39663;45.432;28.050;2023-02-11T01:42:54;103208.58;;;8.60;46.16
52291;BME280;39663;45.432;28.050;2023-02-11T01:43:28;103207.57;;;8.61;46.59
52291;BME280;39663;45.432;28.050;2023-02-11T01:44:25;103207.39;;;8.33;46.43
52291;BME280;39663;45.432;28.050;2023-02-11T01:44:58;103206.37;;;8.71;46.38
52291;BME280;39663;45.432;28.050;2023-02-11T01:46:11;103205.51;;;8.56;46.35
52291;BME280;39663;45.432;28.050;2023-02-11T01:46:44;103201.67;;;8.37;46.39
52291;BME280;39663;45.432;28.050;2023-02-11T01:47:16;103201.03;;;8.33;46.28
52291;BME280;39663;45.432;28.050;2023-02-11T01:47:47;103200.74;;;8.43;46.15
52291;BME280;39663;45.432;28.050;2023-02-11T01:48:23;103200.47;;;8.40;46.08
52291;BME280;39663;45.432;28.050;2023-02-11T01:48:58;103197.76;;;8.32;46.12
52291;BME280;39663;45.432;28.050;2023-02-11T01:49:33;103196.70;;;8.33;46.15
52291;BME280;39663;45.432;28.050;2023-02-11T01:50:06;103196.30;;;8.38;45.99
52291;BME280;39663;45.432;28.050;2023-02-11T01:50:40;103196.78;;;8.48;45.83
52291;BME280;39663;45.432;28.050;2023-02-11T01:51:17;103197.75;;;8.48;46.31
52291;BME280;39663;45.432;28.050;2023-02-11T01:51:55;103197.92;;;8.28;46.25
52291;BME280;39663;45.432;28.050;2023-02-11T01:52:32;103196.23;;;8.47;46.26
52291;BME280;39663;45.432;28.050;2023-02-11T01:53:06;103196.24;;;8.50;46.34
52291;BME280;39663;45.432;28.050;2023-02-11T01:53:39;103196.46;;;8.57;46.32
52291;BME280;39663;45.432;28.050;2023-02-11T01:54:15;103193.11;;;8.66;46.61
52291;BME280;39663;45.432;28.050;2023-02-11T01:54:51;103193.32;;;8.34;46.47
52291;BME280;39663;45.432;28.050;2023-02-11T01:55:23;103190.74;;;8.68;46.37
52291;BME280;39663;45.432;28.050;2023-02-11T01:55:55;103193.23;;;8.56;46.30
52291;BME280;39663;45.432;28.050;2023-02-11T01:56:28;103190.44;;;8.24;45.98
52291;BME280;39663;45.432;28.050;2023-02-11T01:57:02;103192.95;;;8.56;46.25
52291;BME280;39663;45.432;28.050;2023-02-11T01:57:37;103191.59;;;8.56;46.27
52291;BME280;39663;45.432;28.050;2023-02-11T01:58:09;103193.17;;;8.46;46.08
52291;BME280;39663;45.432;28.050;2023-02-11T01:58:43;103193.72;;;8.69;46.02
52291;BME280;39663;45.432;28.050;2023-02-11T01:59:19;103192.25;;;8.71;46.04
52291;BME280;39663;45.432;28.050;2023-02-11T02:00:03;103192.43;;;8.44;46.12
52291;BME280;39663;45.432;28.050;2023-02-11T02:00:37;103192.69;;;8.58;46.46
52291;BME280;39663;45.432;28.050;2023-02-11T02:01:12;103191.84;;;8.35;46.45
52291;BME280;39663;45.432;28.050;2023-02-11T02:01:49;103192.93;;;8.24;46.16
52291;BME280;39663;45.432;28.050;2023-02-11T02:02:26;103192.43;;;8.61;46.16
52291;BME280;39663;45.432;28.050;2023-02-11T02:03:04;103194.00;;;8.55;46.27
52291;BME280;39663;45.432;28.050;2023-02-11T02:03:39;103192.86;;;8.17;46.01
52291;BME280;39663;45.432;28.050;2023-02-11T02:04:16;103193.21;;;8.29;45.96
52291;BME280;39663;45.432;28.050;2023-02-11T02:04:54;103193.34;;;8.57;45.87
52291;BME280;39663;45.432;28.050;2023-02-11T02:05:32;103193.23;;;8.44;46.26
52291;BME280;39663;45.432;28.050;2023-02-11T02:06:11;103193.18;;;8.55;46.28
52291;BME280;39663;45.432;28.050;2023-02-11T02:06:51;103194.44;;;8.24;46.30
52291;BME280;39663;45.432;28.050;2023-02-11T02:07:31;103195.04;;;8.22;46.25
52291;BME280;39663;45.432;28.050;2023-02-11T02:08:08;103195.13;;;8.32;46.33
52291;BME280;39663;45.432;28.050;2023-02-11T02:08:46;103193.96;;;8.54;46.48
52291;BME280;39663;45.432;28.050;2023-02-11T02:09:22;103194.82;;;8.52;46.48
52291;BME280;39663;45.432;28.050;2023-02-11T02:09:59;103194.25;;;8.55;46.49
52291;BME280;39663;45.432;28.050;2023-02-11T02:10:33;103194.63;;;8.58;46.32
52291;BME280;39663;45.432;28.050;2023-02-11T02:11:06;103193.82;;;8.52;46.33
52291;BME280;39663;45.432;28.050;2023-02-11T02:11:37;103196.40;;;8.16;46.35
52291;BME280;39663;45.432;28.050;2023-02-11T02:12:09;103194.11;;;8.20;46.34
52291;BME280;39663;45.432;28.050;2023-02-11T02:12:40;103196.03;;;8.35;46.24
52291;BME280;39663;45.432;28.050;2023-02-11T02:13:13;103195.83;;;8.40;46.06
52291;BME280;39663;45.432;28.050;2023-02-11T02:13:45;103197.44;;;8.39;46.30
52291;BME280;39663;45.432;28.050;2023-02-11T02:14:17;103196.12;;;8.44;46.00
52291;BME280;39663;45.432;28.050;2023-02-11T02:14:48;103196.03;;;8.24;46.21
52291;BME280;39663;45.432;28.050;2023-02-11T02:15:23;103196.54;;;8.62;46.14
52291;BME280;39663;45.432;28.050;2023-02-11T02:15:57;103198.71;;;8.45;46.26
52291;BME280;39663;45.432;28.050;2023-02-11T02:16:32;103196.49;;;8.60;46.19
52291;BME280;39663;45.432;28.050;2023-02-11T02:17:04;103196.51;;;8.42;46.33
52291;BME280;39663;45.432;28.050;2023-02-11T02:17:40;103195.36;;;8.54;46.47
52291;BME280;39663;45.432;28.050;2023-02-11T02:18:27;103196.00;;;8.54;46.30
52291;BME280;39663;45.432;28.050;2023-02-11T02:19:22;103195.92;;;8.41;46.40
52291;BME280;39663;45.432;28.050;2023-02-11T02:20:51;103195.93;;;8.40;46.32
52291;BME280;39663;45.432;28.050;2023-02-11T02:21:43;103193.93;;;8.59;46.24
52291;BME280;39663;45.432;28.050;2023-02-11T02:22:37;103194.61;;;8.43;46.06
52291;BME280;39663;45.432;28.050;2023-02-11T02:23:23;103193.85;;;8.25;46.09
52291;BME280;39663;45.432;28.050;2023-02-11T02:24:21;103195.38;;;8.56;46.14
52291;BME280;39663;45.432;28.050;2023-02-11T02:24:58;103196.43;;;8.27;46.13
52291;BME280;39663;45.432;28.050;2023-02-11T02:25:53;103192.83;;;8.34;46.26
52291;BME280;39663;45.432;28.050;2023-02-11T02:26:52;103193.46;;;8.55;46.35
52291;BME280;39663;45.432;28.050;2023-02-11T02:27:40;103192.50;;;8.35;46.44
52291;BME280;39663;45.432;28.050;2023-02-11T02:28:35;103191.66;;;8.21;46.33
52291;BME280;39663;45.432;28.050;2023-02-11T02:29:42;103190.22;;;8.55;46.59
52291;BME280;39663;45.432;28.050;2023-02-11T02:31:16;103192.54;;;8.57;46.25
52291;BME280;39663;45.432;28.050;2023-02-11T02:32:36;103194.05;;;8.53;46.67
52291;BME280;39663;45.432;28.050;2023-02-11T02:33:18;103196.25;;;8.37;46.49
52291;BME280;39663;45.432;28.050;2023-02-11T02:33:55;103195.16;;;8.55;46.63
52291;BME280;39663;45.432;28.050;2023-02-11T02:34:32;103194.42;;;8.29;46.55
52291;BME280;39663;45.432;28.050;2023-02-11T02:35:16;103194.03;;;8.58;46.42
52291;BME280;39663;45.432;28.050;2023-02-11T02:35:59;103192.22;;;8.24;46.34
52291;BME280;39663;45.432;28.050;2023-02-11T02:36:36;103193.29;;;8.17;46.46
52291;BME280;39663;45.432;28.050;2023-02-11T02:37:18;103194.97;;;8.39;46.38
52291;BME280;39663;45.432;28.050;2023-02-11T02:37:56;103195.78;;;8.22;46.47
52291;BME280;39663;45.432;28.050;2023-02-11T02:38:34;103197.25;;;8.40;46.26
52291;BME280;39663;45.432;28.050;2023-02-11T02:39:11;103201.21;;;8.22;46.21
52291;BME280;39663;45.432;28.050;2023-02-11T02:39:44;103200.90;;;8.66;46.25
52291;BME280;39663;45.432;28.050;2023-02-11T02:40:22;103203.09;;;8.60;46.24
52291;BME280;39663;45.432;28.050;2023-02-11T02:40:58;103201.01;;;8.31;46.34
52291;BME280;39663;45.432;28.050;2023-02-11T02:41:34;103201.07;;;8.15;46.22
52291;BME280;39663;45.432;28.050;2023-02-11T02:42:07;103203.20;;;8.38;46.33
52291;BME280;39663;45.432;28.050;2023-02-11T02:42:40;103198.18;;;8.60;46.47
52291;BME280;39663;45.432;28.050;2023-02-11T02:43:13;103201.13;;;8.63;46.46
52291;BME280;39663;45.432;28.050;2023-02-11T02:43:48;103201.40;;;8.16;46.59
52291;BME280;39663;45.432;28.050;2023-02-11T02:44:20;103199.98;;;8.16;46.67
52291;BME280;39663;45.432;28.050;2023-02-11T02:44:52;103199.73;;;8.65;46.63
52291;BME280;39663;45.432;28.050;2023-02-11T02:45:26;103198.69;;;8.41;46.65
52291;BME280;39663;45.432;28.050;2023-02-11T02:46:10;103197.34;;;8.21;46.52
52291;BME280;39663;45.432;28.050;2023-02-11T02:46:42;103200.74;;;8.63;46.56
52291;BME280;39663;45.432;28.050;2023-02-11T02:47:13;103199.75;;;8.37;46.57
52291;BME280;39663;45.432;28.050;2023-02-11T02:47:45;103199.17;;;8.34;46.68
52291;BME280;39663;45.432;28.050;2023-02-11T02:48:26;103201.73;;;8.15;46.74
52291;BME280;39663;45.432;28.050;2023-02-11T02:48:58;103201.07;;;8.41;46.64
52291;BME280;39663;45.432;28.050;2023-02-11T02:49:30;103199.83;;;8.31;46.68
52291;BME280;39663;45.432;28.050;2023-02-11T02:50:02;103201.57;;;8.22;46.75
52291;BME280;39663;45.432;28.050;2023-02-11T02:50:36;103199.92;;;8.48;46.88
52291;BME280;39663;45.432;28.050;2023-02-11T02:51:19;103200.37;;;8.23;46.57
52291;BME280;39663;45.432;28.050;2023-02-11T02:52:34;103199.15;;;8.39;46.61
52291;BME280;39663;45.432;28.050;2023-02-11T02:53:19;103198.23;;;8.41;46.55
52291;BME280;39663;45.432;28.050;2023-02-11T02:54:09;103196.32;;;8.39;46.76
52291;BME280;39663;45.432;28.050;2023-02-11T02:55:27;103195.56;;;8.15;46.59
52291;BME280;39663;45.432;28.050;2023-02-11T02:56:05;103194.82;;;8.50;46.65
52291;BME280;39663;45.432;28.050;2023-02-11T02:56:43;103194.92;;;8.32;46.64
52291;BME280;39663;45.432;28.050;2023-02-11T02:57:28;103194.72;;;8.12;46.79
52291;BME280;39663;45.432;28.050;2023-02-11T02:58:13;103194.50;;;8.20;46.64
52291;BME280;39663;45.432;28.050;2023-02-11T02:59:12;103192.58;;;8.56;46.61
52291;BME280;39663;45.432;28.050;2023-02-11T02:59:59;103191.77;;;8.14;46.60
52291;BME280;39663;45.432;28.050;2023-02-11T03:00:38;103191.67;;;8.61;46.66
52291;BME280;39663;45.432;28.050;2023-02-11T03:01:22;103190.95;;;8.39;46.62
52291;BME280;39663;45.432;28.050;2023-02-11T03:02:00;103188.00;;;8.50;46.66
52291;BME280;39663;45.432;28.050;2023-02-11T03:02:40;103186.12;;;8.33;46.64
52291;BME280;39663;45.432;28.050;2023-02-11T03:03:22;103186.44;;;8.23;46.75
52291;BME280;39663;45.432;28.050;2023-02-11T03:04:04;103184.67;;;8.43;46.48
52291;BME280;39663;45.432;28.050;2023-02-11T03:04:42;103184.15;;;8.34;46.59
52291;BME280;39663;45.432;28.050;2023-02-11T03:05:20;103184.37;;;8.55;46.59
52291;BME280;39663;45.432;28.050;2023-02-11T03:05:59;103185.55;;;8.20;46.78
52291;BME280;39663;45.432;28.050;2023-02-11T03:06:37;103184.68;;;8.37;46.64
52291;BME280;39663;45.432;28.050;2023-02-11T03:07:19;103184.37;;;8.58;46.45
52291;BME280;39663;45.432;28.050;2023-02-11T03:07:58;103182.29;;;8.23;46.68
52291;BME280;39663;45.432;28.050;2023-02-11T03:08:37;103184.20;;;8.40;46.46
52291;BME280;39663;45.432;28.050;2023-02-11T03:09:13;103183.85;;;8.31;46.54
52291;BME280;39663;45.432;28.050;2023-02-11T03:09:50;103184.77;;;8.52;46.61
52291;BME280;39663;45.432;28.050;2023-02-11T03:10:29;103183.18;;;8.08;46.58
52291;BME280;39663;45.432;28.050;2023-02-11T03:11:02;103183.81;;;8.13;46.79
52291;BME280;39663;45.432;28.050;2023-02-11T03:11:36;103183.76;;;8.56;46.81
52291;BME280;39663;45.432;28.050;2023-02-11T03:12:09;103185.23;;;8.15;46.72